createdAt,value
2018-10-09T00:02:22.458Z,13.23
2018-10-09T00:04:51.087Z,13.22
2018-10-09T00:07:19.590Z,13.18
2018-10-09T00:09:48.598Z,13.18
2018-10-09T00:12:17.106Z,13.17
2018-10-09T00:14:45.884Z,13.17
2018-10-09T00:17:14.435Z,13.15
2018-10-09T00:19:43.143Z,13.12
2018-10-09T00:22:11.842Z,13.13
2018-10-09T00:24:40.362Z,13.13
2018-10-09T00:27:09.016Z,13.13
2018-10-09T00:29:37.567Z,13.14
2018-10-09T00:32:07.487Z,12.83
2018-10-09T00:34:35.986Z,13.12
2018-10-09T00:37:04.842Z,13.12
2018-10-09T00:39:33.459Z,13.12
2018-10-09T00:42:02.080Z,13.13
2018-10-09T00:44:30.582Z,13.13
2018-10-09T00:46:59.253Z,13.11
2018-10-09T00:49:28.035Z,13.12
2018-10-09T00:51:56.558Z,13.13
2018-10-09T00:54:25.425Z,13.13
2018-10-09T00:56:54.014Z,13.12
2018-10-09T00:59:22.849Z,13.13
2018-10-09T01:01:51.450Z,13.14
2018-10-09T01:04:19.960Z,13.14
2018-10-09T01:06:48.574Z,13.14
2018-10-09T01:09:17.134Z,13.15
2018-10-09T01:11:45.993Z,13.16
2018-10-09T01:14:14.481Z,13.16
2018-10-09T01:16:43.331Z,13.15
2018-10-09T01:19:12.015Z,13.16
2018-10-09T01:21:40.624Z,13.15
2018-10-09T01:24:09.467Z,13.14
2018-10-09T01:26:37.982Z,13.15
2018-10-09T01:29:06.856Z,13.13
2018-10-09T01:31:35.442Z,13.13
2018-10-09T01:34:04.252Z,13.14
2018-10-09T01:36:32.749Z,13.14
2018-10-09T01:39:01.374Z,13.14
2018-10-09T01:41:30.430Z,13.15
2018-10-09T01:43:59.010Z,13.13
2018-10-09T01:46:28.583Z,13.08
2018-10-09T01:48:57.214Z,13.14
2018-10-09T01:51:25.946Z,12.91
2018-10-09T01:53:54.546Z,13.17
2018-10-09T01:56:23.564Z,13.15
2018-10-09T01:58:52.054Z,13.15
2018-10-09T02:01:20.869Z,13.16
2018-10-09T02:03:49.354Z,13.17
2018-10-09T02:06:17.979Z,13.17
2018-10-09T02:08:46.506Z,13.17
2018-10-09T02:11:15.020Z,13.15
2018-10-09T02:13:43.636Z,13.16
2018-10-09T02:16:12.217Z,13.16
2018-10-09T02:18:41.156Z,13.15
2018-10-09T02:21:10.314Z,13.09
2018-10-09T02:23:38.987Z,13.14
2018-10-09T02:26:07.604Z,13.16
2018-10-09T02:28:36.120Z,13.12
2018-10-09T02:31:04.754Z,12.55
2018-10-09T02:33:33.317Z,13.07
2018-10-09T02:36:02.058Z,13.04
2018-10-09T02:38:30.608Z,13.03
2018-10-09T02:40:59.313Z,12.99
2018-10-09T02:43:27.888Z,12.95
2018-10-09T02:45:56.431Z,12.95
2018-10-09T02:48:25.040Z,12.95
2018-10-09T02:50:53.676Z,12.96
2018-10-09T02:53:23.302Z,12.98
2018-10-09T02:55:51.911Z,13.01
2018-10-09T02:58:20.552Z,12.42
2018-10-09T03:00:49.201Z,13.06
2018-10-09T03:03:17.751Z,13.05
2018-10-09T03:05:46.270Z,13.05
2018-10-09T03:08:14.859Z,13.07
2018-10-09T03:10:43.671Z,13.00
2018-10-09T03:13:12.216Z,13.04
2018-10-09T03:15:41.175Z,13.03
2018-10-09T03:18:09.783Z,13.07
2018-10-09T03:20:38.417Z,13.06
2018-10-09T03:23:07.140Z,13.06
2018-10-09T03:25:35.898Z,13.05
2018-10-09T03:28:04.714Z,13.07
2018-10-09T03:30:33.326Z,13.08
2018-10-09T03:33:02.094Z,13.09
2018-10-09T03:35:30.727Z,13.08
2018-10-09T03:37:59.492Z,13.11
2018-10-09T03:40:28.099Z,13.12
2018-10-09T03:42:56.721Z,13.14
2018-10-09T03:45:25.289Z,13.12
2018-10-09T03:47:53.826Z,13.13
2018-10-09T03:50:22.570Z,12.95
2018-10-09T03:52:51.182Z,13.13
2018-10-09T03:55:19.975Z,12.85
2018-10-09T03:57:48.540Z,13.15
2018-10-09T04:00:17.344Z,13.15
2018-10-09T04:02:45.979Z,13.15
2018-10-09T04:05:14.582Z,13.14
2018-10-09T04:07:43.228Z,13.13
2018-10-09T04:10:11.758Z,13.15
2018-10-09T04:12:40.548Z,13.14
2018-10-09T04:15:09.179Z,13.11
2018-10-09T04:17:38.007Z,13.11
2018-10-09T04:20:06.654Z,13.10
2018-10-09T04:22:35.283Z,13.12
2018-10-09T04:25:03.904Z,13.06
2018-10-09T04:27:32.415Z,13.14
2018-10-09T04:30:01.243Z,13.14
2018-10-09T04:32:29.754Z,13.15
2018-10-09T04:34:58.470Z,13.15
2018-10-09T04:37:27.038Z,13.15
2018-10-09T04:39:55.654Z,13.18
2018-10-09T04:42:24.138Z,13.18
2018-10-09T04:44:52.674Z,13.19
2018-10-09T04:47:21.486Z,13.20
2018-10-09T04:49:49.958Z,13.23
2018-10-09T04:52:18.738Z,13.23
2018-10-09T04:54:47.594Z,13.21
2018-10-09T04:57:16.283Z,13.22
2018-10-09T04:59:44.878Z,13.23
2018-10-09T05:02:13.428Z,13.22
2018-10-09T05:04:42.114Z,13.22
2018-10-09T05:07:11.438Z,13.21
2018-10-09T05:09:40.260Z,13.23
2018-10-09T05:12:08.882Z,13.23
2018-10-09T05:14:37.744Z,12.97
2018-10-09T05:17:06.360Z,13.22
2018-10-09T05:19:35.187Z,13.22
2018-10-09T05:22:03.853Z,13.23
2018-10-09T05:24:32.710Z,13.22
2018-10-09T05:27:01.238Z,13.22
2018-10-09T05:29:29.854Z,13.22
2018-10-09T05:31:58.954Z,13.23
2018-10-09T05:34:27.491Z,13.31
2018-10-09T05:36:56.458Z,13.32
2018-10-09T05:39:25.151Z,13.32
2018-10-09T05:41:53.785Z,13.32
2018-10-09T05:44:22.375Z,13.33
2018-10-09T05:46:50.872Z,13.31
2018-10-09T05:49:19.739Z,13.30
2018-10-09T05:51:48.246Z,13.29
2018-10-09T05:54:17.059Z,13.01
2018-10-09T05:56:45.584Z,13.29
2018-10-09T05:59:14.318Z,13.29
2018-10-09T06:01:43.127Z,13.30
2018-10-09T06:04:12.057Z,13.29
2018-10-09T06:06:40.670Z,13.31
2018-10-09T06:09:10.570Z,13.31
2018-10-09T06:11:39.497Z,13.00
2018-10-09T06:14:08.434Z,13.32
2018-10-09T06:16:37.099Z,13.35
2018-10-09T06:19:06.823Z,13.35
2018-10-09T06:21:35.662Z,13.10
2018-10-09T06:24:04.292Z,13.36
2018-10-09T06:26:33.059Z,13.38
2018-10-09T06:29:01.539Z,13.40
2018-10-09T06:31:31.758Z,13.40
2018-10-09T06:34:00.435Z,13.43
2018-10-09T06:36:29.026Z,13.45
2018-10-09T06:38:57.826Z,13.47
2018-10-09T06:41:26.331Z,13.51
2018-10-09T06:43:55.211Z,13.52
2018-10-09T06:46:23.695Z,13.56
2018-10-09T06:48:52.430Z,13.61
2018-10-09T06:51:20.950Z,13.64
2018-10-09T06:53:49.593Z,13.63
2018-10-09T06:56:18.078Z,13.63
2018-10-09T06:58:48.822Z,13.64
2018-10-09T07:01:17.442Z,13.63
2018-10-09T07:03:45.975Z,13.62
2018-10-09T07:06:14.704Z,13.14
2018-10-09T07:08:43.340Z,13.59
2018-10-09T07:11:12.280Z,13.61
2018-10-09T07:13:40.812Z,13.61
2018-10-09T07:16:09.565Z,13.61
2018-10-09T07:18:38.187Z,13.62
2018-10-09T07:21:06.958Z,13.60
2018-10-09T07:23:35.610Z,13.59
2018-10-09T07:26:04.294Z,13.60
2018-10-09T07:28:33.106Z,13.61
2018-10-09T07:31:01.585Z,13.57
2018-10-09T07:33:30.351Z,13.34
2018-10-09T07:35:58.940Z,13.66
2018-10-09T07:38:27.560Z,13.70
2018-10-09T07:40:57.051Z,13.72
2018-10-09T07:43:26.420Z,13.72
2018-10-09T07:45:54.971Z,13.69
2018-10-09T07:48:23.542Z,13.72
2018-10-09T07:50:52.377Z,13.12
2018-10-09T07:53:20.860Z,13.72
2018-10-09T07:55:49.686Z,13.73
2018-10-09T07:58:18.303Z,13.73
2018-10-09T08:00:46.959Z,13.73
2018-10-09T08:03:15.522Z,13.75
2018-10-09T08:05:44.023Z,13.78
2018-10-09T08:08:12.718Z,13.76
2018-10-09T08:10:41.313Z,13.82
2018-10-09T08:13:10.395Z,13.84
2018-10-09T08:15:38.972Z,13.80
2018-10-09T08:18:09.159Z,13.81
2018-10-09T08:20:38.849Z,13.84
2018-10-09T08:23:07.628Z,13.84
2018-10-09T08:25:36.353Z,13.85
2018-10-09T08:28:05.364Z,13.90
2018-10-09T08:30:34.313Z,13.92
2018-10-09T08:33:03.626Z,13.90
2018-10-09T08:35:32.138Z,13.90
2018-10-09T08:38:00.745Z,13.91
2018-10-09T08:40:29.531Z,13.90
2018-10-09T08:43:00.746Z,13.93
2018-10-09T08:45:29.554Z,13.97
2018-10-09T08:47:58.094Z,13.99
2018-10-09T08:50:26.990Z,13.91
2018-10-09T08:52:55.520Z,14.01
2018-10-09T08:55:24.461Z,14.04
2018-10-09T08:57:53.021Z,14.06
2018-10-09T09:00:22.331Z,13.98
2018-10-09T09:02:50.972Z,14.10
2018-10-09T09:05:19.785Z,14.14
2018-10-09T09:07:48.402Z,14.13
2018-10-09T09:10:17.071Z,14.12
2018-10-09T09:12:45.686Z,14.12
2018-10-09T09:15:14.282Z,14.11
2018-10-09T09:17:43.251Z,14.03
2018-10-09T09:20:11.882Z,14.01
2018-10-09T09:22:40.897Z,14.01
2018-10-09T09:25:10.457Z,14.01
2018-10-09T09:27:39.355Z,14.04
2018-10-09T09:30:08.488Z,14.08
2018-10-09T09:32:37.274Z,13.98
2018-10-09T09:35:05.983Z,14.07
2018-10-09T09:37:34.712Z,14.10
2018-10-09T09:40:03.448Z,14.10
2018-10-09T09:42:32.053Z,14.11
2018-10-09T09:45:00.851Z,13.54
2018-10-09T09:47:29.420Z,14.11
2018-10-09T09:49:58.152Z,14.14
2018-10-09T09:52:26.728Z,14.15
2018-10-09T09:54:55.299Z,14.11
2018-10-09T09:57:23.862Z,13.95
2018-10-09T09:59:52.436Z,14.06
2018-10-09T10:02:20.992Z,14.09
2018-10-09T10:04:49.488Z,14.10
2018-10-09T10:07:18.212Z,14.12
2018-10-09T10:09:46.812Z,14.15
2018-10-09T10:12:15.435Z,14.15
2018-10-09T10:14:43.948Z,14.19
2018-10-09T10:17:12.589Z,14.19
2018-10-09T10:19:41.634Z,14.17
2018-10-09T10:22:10.119Z,14.23
2018-10-09T10:24:39.847Z,14.00
2018-10-09T10:27:08.553Z,14.32
2018-10-09T10:29:37.403Z,14.39
2018-10-09T10:32:06.086Z,14.45
2018-10-09T10:34:35.107Z,14.47
2018-10-09T10:37:03.711Z,14.47
2018-10-09T10:39:32.340Z,14.38
2018-10-09T10:42:00.867Z,14.38
2018-10-09T10:44:29.353Z,14.39
2018-10-09T10:46:58.054Z,14.38
2018-10-09T10:49:26.748Z,14.35
2018-10-09T10:51:55.995Z,14.38
2018-10-09T10:54:24.591Z,14.45
2018-10-09T10:56:53.364Z,14.53
2018-10-09T10:59:22.087Z,14.61
2018-10-09T11:01:50.761Z,14.64
2018-10-09T11:04:19.236Z,14.63
2018-10-09T11:06:47.759Z,14.66
2018-10-09T11:09:16.549Z,14.38
2018-10-09T11:11:45.678Z,14.65
2018-10-09T11:14:14.405Z,14.68
2018-10-09T11:16:43.038Z,14.70
2018-10-09T11:19:11.691Z,14.71
2018-10-09T11:21:40.513Z,14.77
2018-10-09T11:24:09.135Z,14.82
2018-10-09T11:26:37.682Z,14.77
2018-10-09T11:29:06.349Z,14.82
2018-10-09T11:31:35.203Z,14.53
2018-10-09T11:34:11.287Z,14.86
2018-10-09T11:36:39.968Z,14.85
2018-10-09T11:39:09.190Z,14.81
2018-10-09T11:41:37.686Z,14.78
2018-10-09T11:44:06.637Z,14.81
2018-10-09T11:46:36.145Z,14.79
2018-10-09T11:49:04.790Z,14.75
2018-10-09T11:51:33.382Z,14.75
2018-10-09T11:54:01.896Z,14.69
2018-10-09T11:56:30.572Z,14.54
2018-10-09T11:58:59.136Z,14.60
2018-10-09T12:01:28.379Z,14.56
2018-10-09T12:03:56.938Z,14.61
2018-10-09T12:06:25.639Z,14.62
2018-10-09T12:08:54.162Z,14.64
2018-10-09T12:11:22.835Z,14.64
2018-10-09T12:13:51.469Z,14.64
2018-10-09T12:16:20.058Z,14.63
2018-10-09T12:18:48.940Z,14.58
2018-10-09T12:21:17.495Z,14.55
2018-10-09T12:23:46.257Z,14.54
2018-10-09T12:26:14.813Z,14.55
2018-10-09T12:28:43.400Z,14.57
2018-10-09T12:31:11.878Z,14.60
2018-10-09T12:33:40.401Z,14.63
2018-10-09T12:36:09.263Z,14.71
2018-10-09T12:38:37.837Z,14.79
2018-10-09T12:41:06.817Z,14.80
2018-10-09T12:43:35.466Z,14.82
2018-10-09T12:46:04.186Z,14.85
2018-10-09T12:48:32.751Z,14.87
2018-10-09T12:51:01.560Z,14.89
2018-10-09T12:53:30.214Z,14.87
2018-10-09T12:55:58.730Z,14.91
2018-10-09T12:58:27.513Z,14.92
2018-10-09T13:00:56.081Z,14.92
2018-10-09T13:03:24.821Z,14.93
2018-10-09T13:05:53.370Z,14.89
2018-10-09T13:08:21.962Z,14.92
2018-10-09T13:10:50.492Z,14.96
2018-10-09T13:13:19.107Z,15.04
2018-10-09T13:15:47.669Z,15.05
2018-10-09T13:18:16.166Z,15.08
2018-10-09T13:20:45.053Z,15.00
2018-10-09T13:23:13.617Z,15.03
2018-10-09T13:25:42.241Z,15.04
2018-10-09T13:28:10.838Z,15.07
2018-10-09T13:30:39.428Z,15.07
2018-10-09T13:33:08.148Z,15.02
2018-10-09T13:35:36.837Z,14.98
2018-10-09T13:38:05.572Z,14.93
2018-10-09T13:40:34.022Z,14.86
2018-10-09T13:43:02.607Z,14.85
2018-10-09T13:45:32.455Z,14.84
2018-10-09T13:48:02.340Z,14.83
2018-10-09T13:50:31.164Z,14.78
2018-10-09T13:52:59.737Z,14.78
2018-10-09T13:55:28.464Z,14.73
2018-10-09T13:57:57.087Z,14.73
2018-10-09T14:00:25.973Z,14.40
2018-10-09T14:02:55.054Z,14.72
2018-10-09T14:05:24.314Z,14.60
2018-10-09T14:07:52.932Z,14.78
2018-10-09T14:10:21.782Z,14.78
2018-10-09T14:12:50.455Z,14.84
2018-10-09T14:15:19.047Z,14.89
2018-10-09T14:17:47.984Z,14.91
2018-10-09T14:20:16.618Z,14.95
2018-10-09T14:22:45.688Z,14.96
2018-10-09T14:25:14.229Z,14.97
2018-10-09T14:27:43.277Z,15.01
2018-10-09T14:30:12.021Z,14.99
2018-10-09T14:32:40.915Z,15.03
2018-10-09T14:35:09.628Z,15.00
2018-10-09T14:37:38.345Z,15.00
2018-10-09T14:40:07.058Z,14.95
2018-10-09T14:42:35.595Z,14.99
2018-10-09T14:45:04.467Z,14.96
2018-10-09T14:47:32.993Z,14.93
2018-10-09T14:50:01.722Z,14.93
2018-10-09T14:52:30.274Z,14.93
2018-10-09T14:54:58.973Z,14.97
2018-10-09T14:57:27.615Z,14.97
2018-10-09T14:59:56.274Z,14.95
2018-10-09T15:02:26.518Z,14.69
2018-10-09T15:04:55.666Z,14.86
2018-10-09T15:07:24.352Z,14.86
2018-10-09T15:09:53.034Z,14.87
2018-10-09T15:12:22.583Z,14.83
2018-10-09T15:14:51.491Z,14.80
2018-10-09T15:17:22.601Z,14.80
2018-10-09T15:19:51.776Z,14.80
2018-10-09T15:22:20.574Z,14.75
2018-10-09T15:24:49.212Z,14.74
2018-10-09T15:27:18.519Z,14.73
2018-10-09T15:29:47.313Z,14.68
2018-10-09T15:32:17.450Z,14.65
2018-10-09T15:34:46.114Z,14.62
2018-10-09T15:37:15.122Z,14.64
2018-10-09T15:39:43.816Z,14.62
2018-10-09T15:42:13.551Z,14.60
2018-10-09T15:44:42.326Z,14.58
2018-10-09T15:47:11.020Z,14.58
2018-10-09T15:49:41.446Z,14.54
2018-10-09T15:52:10.501Z,14.52
2018-10-09T15:54:39.708Z,13.41
2018-10-09T15:57:08.781Z,14.44
2018-10-09T15:59:37.447Z,14.15
2018-10-09T16:02:06.712Z,14.41
2018-10-09T16:04:35.551Z,14.40
2018-10-09T16:07:04.129Z,14.37
2018-10-09T16:09:33.475Z,14.32
2018-10-09T16:12:02.209Z,14.31
2018-10-09T16:14:31.479Z,14.30
2018-10-09T16:17:00.158Z,14.29
2018-10-09T16:19:28.831Z,14.28
2018-10-09T16:21:57.394Z,14.28
2018-10-09T16:24:26.115Z,14.30
2018-10-09T16:26:55.109Z,14.27
2018-10-09T16:29:28.464Z,14.01
2018-10-09T16:31:57.159Z,14.24
2018-10-09T16:34:26.196Z,14.23
2018-10-09T16:36:55.032Z,14.20
2018-10-09T16:39:23.979Z,14.20
2018-10-09T16:41:52.759Z,14.18
2018-10-09T16:44:21.336Z,14.16
2018-10-09T16:46:50.402Z,14.17
2018-10-09T16:49:18.894Z,14.19
2018-10-09T16:51:48.046Z,13.53
2018-10-09T16:54:17.070Z,14.17
2018-10-09T16:56:46.072Z,14.17
2018-10-09T16:59:14.634Z,14.16
2018-10-09T17:01:43.283Z,14.16
2018-10-09T17:04:11.813Z,14.16
2018-10-09T17:06:40.548Z,14.13
2018-10-09T17:09:10.144Z,14.12
2018-10-09T17:11:39.167Z,14.13
2018-10-09T17:14:08.227Z,14.11
2018-10-09T17:16:37.292Z,14.10
2018-10-09T17:19:05.953Z,14.09
2018-10-09T17:21:34.579Z,14.09
2018-10-09T17:24:04.459Z,14.10
2018-10-09T17:26:33.697Z,14.08
2018-10-09T17:29:03.385Z,14.07
2018-10-09T17:31:32.902Z,14.10
2018-10-09T17:34:01.676Z,14.04
2018-10-09T17:36:30.454Z,14.02
2018-10-09T17:38:59.195Z,14.00
2018-10-09T17:41:27.818Z,13.95
2018-10-09T17:43:56.439Z,13.84
2018-10-09T17:46:26.405Z,13.45
2018-10-09T17:48:55.038Z,13.73
2018-10-09T17:51:24.294Z,13.27
2018-10-09T17:53:53.489Z,13.68
2018-10-09T17:56:22.584Z,13.66
2018-10-09T17:58:51.162Z,13.66
2018-10-09T18:01:20.052Z,13.66
2018-10-09T18:03:49.185Z,13.65
2018-10-09T18:06:17.796Z,13.65
2018-10-09T18:08:46.529Z,13.65
2018-10-09T18:11:15.170Z,13.67
2018-10-09T18:13:43.992Z,13.67
2018-10-09T18:16:12.630Z,13.71
2018-10-09T18:18:41.670Z,13.73
2018-10-09T18:21:11.631Z,13.76
2018-10-09T18:23:40.831Z,13.78
2018-10-09T18:26:09.473Z,13.80
2018-10-09T18:28:38.932Z,13.82
2018-10-09T18:31:07.534Z,13.83
2018-10-09T18:33:36.572Z,13.85
2018-10-09T18:36:05.156Z,13.87
2018-10-09T18:38:33.970Z,13.88
2018-10-09T18:41:03.199Z,13.23
2018-10-09T18:43:32.139Z,13.90
2018-10-09T18:46:00.884Z,13.87
2018-10-09T18:48:29.470Z,13.88
2018-10-09T18:50:58.701Z,13.91
2018-10-09T18:53:27.472Z,13.88
2018-10-09T18:55:56.627Z,13.21
2018-10-09T18:58:25.289Z,13.90
2018-10-09T19:00:54.444Z,13.88
2018-10-09T19:03:23.127Z,13.88
2018-10-09T19:05:51.954Z,13.85
2018-10-09T19:08:20.642Z,13.87
2018-10-09T19:10:49.322Z,13.85
2018-10-09T19:13:18.173Z,13.60
2018-10-09T19:15:46.822Z,13.88
2018-10-09T19:18:15.745Z,13.87
2018-10-09T19:20:44.272Z,13.87
2018-10-09T19:23:13.428Z,13.87
2018-10-09T19:25:42.004Z,13.87
2018-10-09T19:28:11.252Z,13.87
2018-10-09T19:30:39.866Z,13.88
2018-10-09T19:33:08.454Z,13.88
2018-10-09T19:35:37.219Z,13.86
2018-10-09T19:38:05.871Z,13.88
2018-10-09T19:40:34.813Z,13.22
2018-10-09T19:43:03.420Z,13.88
2018-10-09T19:45:32.908Z,13.90
2018-10-09T19:48:01.950Z,13.91
2018-10-09T19:50:30.736Z,13.90
2018-10-09T19:52:59.300Z,13.91
2018-10-09T19:55:27.904Z,13.91
2018-10-09T19:57:56.507Z,13.88
2018-10-09T20:00:25.141Z,13.91
2018-10-09T20:02:54.747Z,13.90
2018-10-09T20:05:23.481Z,13.92
2018-10-09T20:07:52.869Z,13.89
2018-10-09T20:10:21.441Z,13.90
2018-10-09T20:12:50.323Z,13.89
2018-10-09T20:15:18.952Z,13.90
2018-10-09T20:17:47.807Z,13.91
2018-10-09T20:20:16.374Z,13.92
2018-10-09T20:22:44.925Z,13.88
2018-10-09T20:25:13.857Z,13.82
2018-10-09T20:27:42.422Z,13.92
2018-10-09T20:30:11.312Z,13.91
2018-10-09T20:32:39.973Z,13.92
2018-10-09T20:35:08.856Z,13.92
2018-10-09T20:37:37.418Z,13.92
2018-10-09T20:40:06.074Z,13.92
2018-10-09T20:42:34.823Z,13.90
2018-10-09T20:45:03.510Z,13.90
2018-10-09T20:47:38.029Z,13.92
2018-10-09T20:50:07.021Z,13.91
2018-10-09T20:52:35.587Z,13.91
2018-10-09T20:55:04.359Z,13.94
2018-10-09T20:57:32.890Z,13.95
2018-10-09T21:00:01.450Z,13.95
2018-10-09T21:02:30.149Z,13.65
2018-10-09T21:04:58.716Z,13.96
2018-10-09T21:07:27.442Z,13.95
2018-10-09T21:09:56.222Z,13.96
2018-10-09T21:12:24.891Z,13.96
2018-10-09T21:14:53.406Z,13.96
2018-10-09T21:17:22.748Z,13.94
2018-10-09T21:19:51.261Z,13.94
2018-10-09T21:22:19.829Z,13.98
2018-10-09T21:24:48.834Z,13.99
2018-10-09T21:27:17.413Z,13.96
2018-10-09T21:29:46.476Z,13.98
2018-10-09T21:32:15.090Z,13.97
2018-10-09T21:34:43.936Z,13.97
2018-10-09T21:37:12.538Z,13.97
2018-10-09T21:39:41.287Z,13.98
2018-10-09T21:42:09.920Z,13.96
2018-10-09T21:44:38.470Z,13.98
2018-10-09T21:47:08.178Z,13.99
2018-10-09T21:49:37.295Z,13.97
2018-10-09T21:52:06.315Z,13.96
2018-10-09T21:54:34.932Z,13.96
2018-10-09T21:57:03.670Z,13.42
2018-10-09T21:59:32.282Z,13.94
2018-10-09T22:02:01.045Z,13.94
2018-10-09T22:04:29.710Z,13.94
2018-10-09T22:06:58.300Z,13.95
2018-10-09T22:09:27.016Z,13.58
2018-10-09T22:11:55.571Z,13.91
2018-10-09T22:14:24.747Z,13.92
2018-10-09T22:16:53.460Z,13.91
2018-10-09T22:19:22.264Z,13.90
2018-10-09T22:21:50.836Z,13.87
2018-10-09T22:24:19.545Z,13.87
2018-10-09T22:26:48.163Z,13.87
2018-10-09T22:29:16.715Z,13.87
2018-10-09T22:31:45.496Z,13.83
2018-10-09T22:34:14.030Z,13.82
2018-10-09T22:36:42.860Z,13.82
2018-10-09T22:39:11.574Z,13.78
2018-10-09T22:41:40.415Z,13.77
2018-10-09T22:44:09.066Z,13.79
2018-10-09T22:46:37.727Z,13.76
2018-10-09T22:49:06.332Z,13.77
2018-10-09T22:51:34.911Z,13.75
2018-10-09T22:54:03.777Z,13.76
2018-10-09T22:56:32.319Z,13.75
2018-10-09T22:59:01.333Z,13.77
2018-10-09T23:01:30.020Z,13.76
2018-10-09T23:03:58.886Z,13.76
2018-10-09T23:06:27.527Z,13.76
2018-10-09T23:08:56.127Z,13.75
2018-10-09T23:11:24.826Z,13.70
2018-10-09T23:13:53.378Z,13.75
2018-10-09T23:16:22.152Z,13.34
2018-10-09T23:18:50.756Z,13.74
2018-10-09T23:21:19.422Z,13.73
2018-10-09T23:23:48.085Z,13.73
2018-10-09T23:26:16.699Z,13.73
2018-10-09T23:28:45.352Z,13.72
2018-10-09T23:31:14.037Z,13.72
2018-10-09T23:33:42.983Z,13.71
2018-10-09T23:36:11.571Z,13.72
2018-10-09T23:38:40.342Z,13.70
2018-10-09T23:41:08.989Z,13.72
2018-10-09T23:43:37.610Z,13.72
2018-10-09T23:46:06.206Z,13.71
2018-10-09T23:48:34.760Z,13.70
2018-10-09T23:51:03.570Z,13.43
2018-10-09T23:53:32.170Z,13.69
2018-10-09T23:56:01.042Z,13.70
2018-10-09T23:58:29.739Z,13.70
